createdAt,value
2023-05-06T00:00:09.210Z,10.50
2023-05-06T00:01:10.910Z,10.50
2023-05-06T00:02:12.621Z,10.50
2023-05-06T00:03:14.634Z,10.80
2023-05-06T00:04:16.581Z,10.90
2023-05-06T00:05:18.801Z,11.30
2023-05-06T00:06:21.168Z,11.50
2023-05-06T00:07:23.186Z,11.50
2023-05-06T00:08:24.885Z,11.40
2023-05-06T00:09:26.758Z,11.00
2023-05-06T00:10:28.470Z,11.30
2023-05-06T00:11:30.164Z,11.80
2023-05-06T00:12:32.112Z,12.10
2023-05-06T00:13:35.154Z,12.30
2023-05-06T00:14:36.908Z,12.50
2023-05-06T00:15:39.053Z,12.80
2023-05-06T00:16:40.829Z,12.90
2023-05-06T00:17:42.717Z,13.00
2023-05-06T00:18:44.455Z,13.00
2023-05-06T00:19:46.207Z,12.50
2023-05-06T00:20:47.927Z,12.30
2023-05-06T00:21:49.778Z,12.40
2023-05-06T00:22:51.442Z,12.40
2023-05-06T00:23:53.171Z,12.30
2023-05-06T00:24:55.260Z,12.40
2023-05-06T00:25:57.083Z,12.40
2023-05-06T00:26:58.820Z,12.40
2023-05-06T00:28:00.987Z,12.20
2023-05-06T00:29:02.745Z,12.10
2023-05-06T00:30:05.211Z,12.00
2023-05-06T00:31:07.321Z,12.10
2023-05-06T00:32:09.096Z,12.30
2023-05-06T00:33:11.051Z,12.50
2023-05-06T00:34:12.831Z,12.80
2023-05-06T00:35:14.566Z,12.80
2023-05-06T00:36:16.409Z,12.80
2023-05-06T00:37:18.181Z,13.00
2023-05-06T00:38:20.083Z,12.80
2023-05-06T00:39:22.416Z,12.60
2023-05-06T00:40:24.298Z,12.60
2023-05-06T00:41:26.335Z,12.70
2023-05-06T00:42:28.217Z,12.70
2023-05-06T00:43:30.337Z,12.70
2023-05-06T00:44:32.175Z,10.20
2023-05-06T00:45:34.198Z,8.70
2023-05-06T00:46:37.194Z,8.50
2023-05-06T00:47:39.615Z,9.80
2023-05-06T00:48:42.277Z,10.50
2023-05-06T00:49:44.665Z,10.90
2023-05-06T00:50:46.470Z,11.20
2023-05-06T00:51:48.900Z,11.40
2023-05-06T00:52:51.751Z,11.50
2023-05-06T00:53:53.877Z,10.60
2023-05-06T00:54:56.469Z,10.00
2023-05-06T00:55:58.449Z,9.60
2023-05-06T00:57:01.434Z,9.40
2023-05-06T00:58:04.491Z,9.10
2023-05-06T00:59:07.422Z,8.80
2023-05-06T01:00:11.595Z,8.20
2023-05-06T01:01:13.695Z,7.80
2023-05-06T01:02:16.669Z,7.70
2023-05-06T01:03:18.851Z,7.20
2023-05-06T01:04:22.896Z,6.70
2023-05-06T01:05:29.760Z,7.00
2023-05-06T01:07:01.608Z,6.60
2023-05-06T01:08:08.582Z,6.60
2023-05-06T01:09:39.122Z,7.00
2023-05-06T01:10:55.947Z,7.80
2023-05-06T01:12:09.562Z,8.40
2023-05-06T01:13:14.414Z,8.70
2023-05-06T01:14:39.898Z,8.20
2023-05-06T01:15:51.993Z,8.10
2023-05-06T01:18:17.771Z,8.30
2023-05-06T01:19:36.675Z,8.60
2023-05-06T01:20:39.958Z,9.00
2023-05-06T01:21:43.934Z,8.70
2023-05-06T01:22:45.880Z,8.00
2023-05-06T01:23:56.129Z,8.00
2023-05-06T01:24:57.891Z,8.60
2023-05-06T01:26:01.152Z,8.50
2023-05-06T01:27:02.838Z,8.50
2023-05-06T01:28:06.707Z,8.60
2023-05-06T01:29:08.845Z,8.70
2023-05-06T01:30:11.512Z,8.80
2023-05-06T01:31:35.724Z,8.90
2023-05-06T01:32:53.150Z,9.10
2023-05-06T01:34:12.793Z,9.20
2023-05-06T01:35:27.681Z,8.30
2023-05-06T01:36:37.509Z,8.10
2023-05-06T01:37:53.970Z,8.30
2023-05-06T01:39:09.371Z,8.40
2023-05-06T01:40:13.007Z,8.80
2023-05-06T01:41:17.186Z,8.90
2023-05-06T01:42:20.743Z,9.10
2023-05-06T01:43:26.527Z,9.60
2023-05-06T01:44:33.825Z,9.90
2023-05-06T01:45:37.821Z,10.00
2023-05-06T01:46:41.346Z,9.90
2023-05-06T01:47:45.614Z,9.90
2023-05-06T01:48:52.570Z,9.60
2023-05-06T01:49:54.670Z,9.10
2023-05-06T01:50:56.715Z,8.50
2023-05-06T01:51:58.518Z,8.60
2023-05-06T01:53:02.123Z,8.30
2023-05-06T01:54:04.316Z,8.70
2023-05-06T01:55:06.771Z,9.00
2023-05-06T01:56:08.662Z,9.20
2023-05-06T01:57:10.913Z,9.10
2023-05-06T01:58:12.660Z,9.10
2023-05-06T01:59:14.360Z,9.20
2023-05-06T02:00:16.616Z,9.40
2023-05-06T02:01:18.538Z,9.60
2023-05-06T02:02:20.796Z,9.80
2023-05-06T02:03:23.130Z,9.60
2023-05-06T02:04:24.931Z,9.30
2023-05-06T02:05:26.782Z,9.00
2023-05-06T02:06:28.513Z,8.70
2023-05-06T02:07:30.336Z,8.70
2023-05-06T02:08:32.389Z,8.80
2023-05-06T02:09:34.242Z,9.30
2023-05-06T02:10:35.966Z,9.60
2023-05-06T02:11:37.714Z,9.60
2023-05-06T02:12:39.688Z,9.60
2023-05-06T02:13:41.403Z,8.90
2023-05-06T02:14:43.071Z,9.10
2023-05-06T02:15:44.835Z,9.20
2023-05-06T02:16:46.547Z,9.30
2023-05-06T02:17:49.511Z,9.20
2023-05-06T02:18:51.312Z,8.00
2023-05-06T02:19:53.205Z,7.30
2023-05-06T02:20:55.019Z,7.10
2023-05-06T02:21:57.597Z,6.40
2023-05-06T02:22:59.244Z,6.40
2023-05-06T02:24:01.097Z,6.40
2023-05-06T02:25:03.894Z,6.80
2023-05-06T02:26:05.706Z,7.30
2023-05-06T02:27:07.635Z,7.20
2023-05-06T02:28:09.426Z,7.10
2023-05-06T02:29:11.318Z,7.10
2023-05-06T02:30:13.216Z,7.20
2023-05-06T02:31:16.192Z,7.30
2023-05-06T02:32:18.087Z,7.40
2023-05-06T02:33:20.270Z,7.10
2023-05-06T02:34:22.342Z,7.10
2023-05-06T02:35:24.586Z,7.00
2023-05-06T02:36:27.903Z,6.80
2023-05-06T02:37:29.585Z,6.40
2023-05-06T02:38:31.333Z,6.40
2023-05-06T02:39:32.997Z,6.40
2023-05-06T02:40:34.682Z,7.00
2023-05-06T02:41:36.381Z,7.10
2023-05-06T02:42:38.171Z,7.30
2023-05-06T02:43:39.883Z,6.90
2023-05-06T02:44:42.123Z,6.40
2023-05-06T02:45:43.975Z,6.40
2023-05-06T02:46:45.871Z,6.40
2023-05-06T02:47:47.708Z,6.30
2023-05-06T02:48:49.494Z,6.30
2023-05-06T02:49:51.376Z,6.30
2023-05-06T02:50:53.324Z,6.40
2023-05-06T02:51:55.339Z,6.30
2023-05-06T02:52:57.108Z,6.30
2023-05-06T02:53:59.265Z,6.30
2023-05-06T02:55:01.913Z,6.30
2023-05-06T02:56:04.080Z,6.30
2023-05-06T02:57:06.193Z,6.30
2023-05-06T02:58:07.905Z,6.30
2023-05-06T02:59:09.703Z,6.00
2023-05-06T03:00:12.837Z,5.70
2023-05-06T03:01:14.549Z,6.10
2023-05-06T03:02:16.270Z,5.70
2023-05-06T03:03:18.645Z,5.50
2023-05-06T03:04:21.244Z,5.60
2023-05-06T03:05:22.942Z,5.60
2023-05-06T03:06:24.681Z,5.70
2023-05-06T03:07:26.336Z,6.30
2023-05-06T03:08:27.966Z,6.30
2023-05-06T03:09:29.760Z,5.50
2023-05-06T03:10:31.456Z,5.40
2023-05-06T03:11:33.513Z,5.20
2023-05-06T03:12:35.626Z,5.10
2023-05-06T03:13:37.476Z,4.50
2023-05-06T03:14:39.330Z,4.50
2023-05-06T03:15:41.546Z,4.50
2023-05-06T03:16:43.543Z,4.50
2023-05-06T03:17:53.291Z,4.30
2023-05-06T03:18:54.989Z,4.40
2023-05-06T03:19:56.772Z,5.10
2023-05-06T03:20:58.467Z,5.50
2023-05-06T03:22:00.219Z,5.80
2023-05-06T03:23:01.878Z,5.60
2023-05-06T03:24:03.689Z,5.90
2023-05-06T03:25:06.016Z,6.20
2023-05-06T03:26:07.762Z,6.20
2023-05-06T03:27:10.330Z,5.80
2023-05-06T03:28:12.136Z,5.80
2023-05-06T03:29:13.822Z,5.60
2023-05-06T03:30:15.548Z,5.80
2023-05-06T03:31:17.252Z,6.20
2023-05-06T03:32:18.962Z,6.20
2023-05-06T03:33:20.610Z,6.20
2023-05-06T03:34:22.714Z,6.20
2023-05-06T03:35:24.370Z,6.30
2023-05-06T03:36:27.971Z,6.60
2023-05-06T03:37:30.752Z,6.70
2023-05-06T03:38:32.526Z,7.00
2023-05-06T03:39:34.580Z,7.10
2023-05-06T03:40:36.454Z,7.20
2023-05-06T03:41:38.404Z,7.20
2023-05-06T03:42:40.264Z,7.30
2023-05-06T03:43:42.267Z,7.50
2023-05-06T03:44:44.007Z,7.50
2023-05-06T03:45:46.240Z,6.70
2023-05-06T03:46:48.216Z,6.20
2023-05-06T03:47:50.141Z,6.20
2023-05-06T03:48:52.294Z,6.20
2023-05-06T03:49:54.418Z,6.30
2023-05-06T03:50:56.510Z,6.20
2023-05-06T03:51:58.369Z,6.20
2023-05-06T03:53:00.617Z,6.20
2023-05-06T03:54:03.642Z,6.60
2023-05-06T03:55:06.489Z,7.00
2023-05-06T03:56:08.314Z,7.20
2023-05-06T03:57:10.215Z,7.10
2023-05-06T03:58:12.064Z,7.20
2023-05-06T03:59:13.837Z,7.30
2023-05-06T04:00:15.854Z,7.10
2023-05-06T04:01:18.258Z,7.10
2023-05-06T04:02:19.957Z,7.10
2023-05-06T04:03:21.883Z,7.20
2023-05-06T04:04:23.702Z,6.90
2023-05-06T04:05:25.542Z,6.30
2023-05-06T04:06:27.362Z,6.80
2023-05-06T04:07:29.120Z,6.20
2023-05-06T04:08:30.884Z,6.10
2023-05-06T04:09:33.624Z,6.10
2023-05-06T04:10:40.258Z,6.10
2023-05-06T04:11:41.950Z,6.10
2023-05-06T04:12:43.753Z,6.10
2023-05-06T04:13:45.451Z,6.10
2023-05-06T04:14:47.814Z,6.10
2023-05-06T04:15:50.590Z,6.10
2023-05-06T04:17:01.631Z,6.10
2023-05-06T04:18:03.705Z,6.10
2023-05-06T04:19:06.612Z,6.10
2023-05-06T04:20:11.453Z,6.10
2023-05-06T04:21:13.493Z,6.10
2023-05-06T04:22:15.155Z,6.20
2023-05-06T04:23:17.126Z,6.10
2023-05-06T04:24:18.965Z,6.30
2023-05-06T04:25:21.320Z,6.10
2023-05-06T04:26:23.226Z,6.10
2023-05-06T04:27:26.660Z,6.30
2023-05-06T04:28:28.536Z,6.50
2023-05-06T04:29:30.569Z,6.50
2023-05-06T04:30:32.664Z,6.10
2023-05-06T04:31:35.194Z,5.60
2023-05-06T04:32:37.058Z,5.70
2023-05-06T04:33:39.158Z,6.00
2023-05-06T04:34:41.787Z,6.10
2023-05-06T04:35:53.824Z,6.00
2023-05-06T04:36:55.697Z,6.50
2023-05-06T04:37:57.429Z,6.00
2023-05-06T04:38:59.264Z,6.00
2023-05-06T04:40:02.660Z,6.10
2023-05-06T04:41:05.604Z,6.00
2023-05-06T04:42:07.429Z,6.10
2023-05-06T04:43:10.445Z,6.00
2023-05-06T04:44:12.921Z,6.10
2023-05-06T04:45:15.113Z,6.00
2023-05-06T04:46:17.312Z,6.00
2023-05-06T04:47:19.321Z,6.00
2023-05-06T04:48:22.491Z,6.00
2023-05-06T04:49:24.251Z,6.10
2023-05-06T04:50:27.153Z,6.20
2023-05-06T04:51:28.827Z,6.50
2023-05-06T04:52:30.865Z,6.80
2023-05-06T04:53:32.741Z,6.90
2023-05-06T04:54:34.490Z,7.00
2023-05-06T04:55:36.483Z,7.00
2023-05-06T04:56:38.374Z,7.00
2023-05-06T04:57:40.044Z,7.30
2023-05-06T04:58:42.156Z,7.50
2023-05-06T04:59:43.968Z,7.60
2023-05-06T05:00:45.851Z,7.90
2023-05-06T05:01:47.609Z,8.00
2023-05-06T05:02:49.586Z,8.10
2023-05-06T05:03:51.486Z,8.10
2023-05-06T05:04:53.294Z,8.30
2023-05-06T05:05:55.032Z,8.30
2023-05-06T05:06:57.803Z,8.20
2023-05-06T05:07:59.578Z,8.40
2023-05-06T05:09:01.430Z,8.40
2023-05-06T05:10:03.572Z,8.50
2023-05-06T05:11:08.526Z,8.70
2023-05-06T05:12:10.396Z,9.20
2023-05-06T05:13:12.464Z,9.20
2023-05-06T05:14:14.216Z,9.50
2023-05-06T05:15:16.302Z,9.80
2023-05-06T05:16:18.485Z,9.90
2023-05-06T05:17:20.332Z,10.20
2023-05-06T05:18:22.259Z,10.20
2023-05-06T05:19:23.967Z,10.30
2023-05-06T05:20:25.669Z,10.70
2023-05-06T05:21:27.765Z,11.00
2023-05-06T05:22:29.437Z,11.20
2023-05-06T05:23:31.116Z,11.20
2023-05-06T05:24:32.757Z,10.90
2023-05-06T05:25:34.449Z,11.00
2023-05-06T05:26:36.218Z,11.10
2023-05-06T05:27:37.998Z,11.20
2023-05-06T05:28:39.898Z,11.00
2023-05-06T05:29:42.859Z,11.10
2023-05-06T05:30:44.575Z,10.90
2023-05-06T05:31:46.930Z,10.80
2023-05-06T05:32:48.976Z,10.70
2023-05-06T05:33:50.978Z,10.70
2023-05-06T05:34:53.162Z,10.90
2023-05-06T05:35:55.080Z,10.80
2023-05-06T05:36:57.634Z,10.80
2023-05-06T05:37:59.397Z,10.50
2023-05-06T05:39:01.639Z,10.70
2023-05-06T05:40:04.645Z,10.40
2023-05-06T05:41:06.604Z,9.90
2023-05-06T05:42:08.387Z,10.20
2023-05-06T05:43:10.476Z,9.80
2023-05-06T05:44:12.169Z,9.50
2023-05-06T05:45:13.911Z,9.40
2023-05-06T05:46:16.796Z,9.00
2023-05-06T05:47:18.573Z,8.50
2023-05-06T05:48:20.559Z,8.10
2023-05-06T05:49:23.717Z,8.00
2023-05-06T05:50:26.133Z,7.20
2023-05-06T05:51:27.822Z,6.70
2023-05-06T05:52:29.441Z,6.70
2023-05-06T05:53:31.784Z,6.30
2023-05-06T05:54:33.642Z,5.90
2023-05-06T05:55:35.483Z,5.60
2023-05-06T05:56:37.218Z,5.40
2023-05-06T05:57:39.284Z,4.80
2023-05-06T05:58:41.223Z,3.80
2023-05-06T05:59:42.982Z,3.60
2023-05-06T06:00:44.802Z,4.00
2023-05-06T06:01:46.490Z,3.00
2023-05-06T06:02:48.357Z,3.00
2023-05-06T06:03:50.542Z,2.80
2023-05-06T06:04:52.497Z,2.40
2023-05-06T06:05:55.350Z,2.70
2023-05-06T06:07:01.986Z,2.90
2023-05-06T06:08:04.439Z,2.40
2023-05-06T06:09:06.508Z,1.70
2023-05-06T06:10:08.856Z,1.40
2023-05-06T06:11:12.008Z,1.00
2023-05-06T06:12:13.996Z,1.00
2023-05-06T06:13:16.217Z,1.00
2023-05-06T06:14:18.141Z,1.00
2023-05-06T06:15:20.939Z,1.00
2023-05-06T06:16:22.761Z,1.00
2023-05-06T06:17:24.665Z,1.00
2023-05-06T06:18:26.435Z,1.00
2023-05-06T06:19:28.096Z,1.00
2023-05-06T06:20:29.958Z,1.00
2023-05-06T06:21:31.736Z,1.00
2023-05-06T06:22:34.559Z,1.00
2023-05-06T06:23:36.383Z,1.00
2023-05-06T06:24:38.045Z,1.00
2023-05-06T06:25:40.120Z,1.00
2023-05-06T06:26:42.291Z,1.00
2023-05-06T06:27:44.017Z,1.00
2023-05-06T06:28:45.839Z,1.00
2023-05-06T06:29:49.968Z,1.00
2023-05-06T06:30:51.871Z,1.00
2023-05-06T06:31:55.990Z,1.00
2023-05-06T06:32:59.267Z,1.00
2023-05-06T06:34:00.970Z,1.00
2023-05-06T06:35:02.626Z,1.00
2023-05-06T06:36:04.726Z,1.00
2023-05-06T06:37:07.916Z,1.00
2023-05-06T06:38:09.745Z,1.00
2023-05-06T06:39:12.745Z,1.00
2023-05-06T06:40:14.718Z,1.00
2023-05-06T06:41:16.557Z,1.00
2023-05-06T06:42:18.301Z,1.00
2023-05-06T06:43:20.096Z,1.00
2023-05-06T06:44:23.195Z,1.00
2023-05-06T06:45:25.310Z,1.00
2023-05-06T06:46:27.383Z,1.00
2023-05-06T06:47:29.424Z,1.00
2023-05-06T06:48:31.382Z,1.00
2023-05-06T06:49:33.230Z,1.00
2023-05-06T06:50:35.118Z,1.00
2023-05-06T06:51:36.884Z,1.00
2023-05-06T06:52:38.612Z,1.00
2023-05-06T06:53:40.347Z,1.00
2023-05-06T06:54:42.011Z,1.00
2023-05-06T06:55:44.958Z,1.00
2023-05-06T06:56:46.679Z,1.00
2023-05-06T06:57:48.416Z,1.00
2023-05-06T06:58:51.816Z,1.00
2023-05-06T06:59:55.769Z,1.00
2023-05-06T07:00:57.514Z,1.00
2023-05-06T07:01:59.171Z,1.00
2023-05-06T07:03:01.090Z,1.00
2023-05-06T07:04:04.296Z,1.00
2023-05-06T07:05:07.170Z,1.00
2023-05-06T07:06:09.025Z,1.00
2023-05-06T07:07:10.846Z,1.00
2023-05-06T07:08:12.572Z,1.00
2023-05-06T07:09:14.278Z,1.00
2023-05-06T07:10:16.056Z,1.00
2023-05-06T07:11:17.842Z,1.00
2023-05-06T07:12:19.729Z,1.00
2023-05-06T07:13:23.466Z,1.00
2023-05-06T07:14:25.858Z,1.00
2023-05-06T07:15:27.733Z,1.00
2023-05-06T07:16:29.627Z,1.00
2023-05-06T07:17:31.329Z,1.00
2023-05-06T07:18:32.986Z,1.00
2023-05-06T07:19:34.739Z,1.00
2023-05-06T07:20:36.750Z,1.00
2023-05-06T07:21:38.434Z,1.00
2023-05-06T07:22:41.513Z,1.00
2023-05-06T07:23:43.308Z,1.00
2023-05-06T07:24:44.982Z,1.00
2023-05-06T07:25:46.724Z,1.00
2023-05-06T07:26:48.527Z,1.00
2023-05-06T07:27:50.494Z,1.00
2023-05-06T07:28:54.792Z,1.00
2023-05-06T07:29:57.094Z,1.00
2023-05-06T07:30:58.937Z,1.00
2023-05-06T07:32:00.667Z,1.00
2023-05-06T07:33:02.366Z,1.00
2023-05-06T07:34:04.287Z,1.00
2023-05-06T07:35:07.022Z,1.00
2023-05-06T07:36:08.846Z,1.00
2023-05-06T07:37:10.517Z,1.00
2023-05-06T07:38:12.350Z,1.00
2023-05-06T07:39:14.464Z,1.00
2023-05-06T07:40:16.197Z,1.00
2023-05-06T07:41:18.128Z,1.00
2023-05-06T07:42:20.028Z,1.00
2023-05-06T07:43:22.960Z,1.00
2023-05-06T07:44:25.087Z,1.00
2023-05-06T07:45:27.073Z,1.00
2023-05-06T07:46:28.970Z,1.00
2023-05-06T07:47:32.148Z,1.00
2023-05-06T07:48:34.369Z,1.00
2023-05-06T07:49:36.119Z,1.00
2023-05-06T07:50:37.943Z,1.00
2023-05-06T07:51:42.121Z,1.00
2023-05-06T07:52:43.786Z,1.00
2023-05-06T07:53:45.988Z,1.00
2023-05-06T07:54:47.682Z,1.00
2023-05-06T07:55:49.958Z,1.00
2023-05-06T07:56:52.796Z,1.00
2023-05-06T07:57:54.665Z,1.00
2023-05-06T07:58:56.567Z,1.00
2023-05-06T07:59:58.548Z,1.00
2023-05-06T08:01:00.388Z,1.00
2023-05-06T08:02:03.435Z,1.00
2023-05-06T08:03:05.636Z,1.00
2023-05-06T08:04:07.592Z,1.00
2023-05-06T08:05:12.507Z,1.00
2023-05-06T08:06:14.598Z,1.00
2023-05-06T08:07:16.949Z,1.00
2023-05-06T08:08:20.025Z,1.00
2023-05-06T08:09:24.161Z,1.00
2023-05-06T08:10:26.341Z,1.00
2023-05-06T08:11:28.113Z,1.00
2023-05-06T08:12:29.795Z,1.00
2023-05-06T08:13:33.431Z,1.00
2023-05-06T08:14:35.235Z,1.00
2023-05-06T08:15:37.203Z,1.00
2023-05-06T08:16:39.687Z,1.00
2023-05-06T08:17:41.580Z,1.00
2023-05-06T08:18:43.337Z,1.00
2023-05-06T08:19:45.132Z,1.00
2023-05-06T08:20:46.796Z,1.00
2023-05-06T08:21:48.901Z,1.00
2023-05-06T08:22:50.587Z,1.00
2023-05-06T08:23:53.550Z,1.00
2023-05-06T08:24:55.598Z,1.00
2023-05-06T08:25:57.500Z,1.00
2023-05-06T08:26:59.568Z,1.00
2023-05-06T08:28:01.985Z,1.00
2023-05-06T08:29:03.788Z,1.00
2023-05-06T08:30:06.647Z,1.00
2023-05-06T08:31:08.378Z,1.00
2023-05-06T08:32:10.357Z,1.00
2023-05-06T08:33:12.816Z,1.00
2023-05-06T08:34:14.646Z,1.00
2023-05-06T08:35:16.408Z,1.00
2023-05-06T08:36:18.570Z,1.00
2023-05-06T08:37:20.384Z,1.00
2023-05-06T08:38:23.029Z,1.00
2023-05-06T08:39:24.784Z,1.00
2023-05-06T08:40:27.253Z,1.00
2023-05-06T08:41:30.542Z,1.00
2023-05-06T08:42:35.307Z,1.00
2023-05-06T08:43:42.721Z,1.00
2023-05-06T08:44:44.640Z,1.00
2023-05-06T08:45:46.824Z,1.00
2023-05-06T08:46:50.263Z,1.00
2023-05-06T08:47:52.801Z,1.00
2023-05-06T08:48:54.863Z,1.00
2023-05-06T08:49:56.786Z,1.00
2023-05-06T08:51:03.481Z,1.00
2023-05-06T08:52:06.781Z,1.00
2023-05-06T08:53:12.024Z,1.00
2023-05-06T08:54:14.181Z,1.00
2023-05-06T08:55:16.435Z,1.00
2023-05-06T08:56:18.928Z,1.00
2023-05-06T08:57:22.047Z,1.00
2023-05-06T08:58:26.436Z,1.00
2023-05-06T08:59:31.042Z,1.00
2023-05-06T09:00:33.895Z,1.00
2023-05-06T09:01:36.931Z,1.00
2023-05-06T09:02:42.190Z,1.00
2023-05-06T09:03:46.078Z,1.00
2023-05-06T09:04:48.749Z,1.00
2023-05-06T09:05:50.613Z,1.00
2023-05-06T09:06:52.706Z,1.00
2023-05-06T09:07:54.760Z,1.00
2023-05-06T09:08:56.780Z,1.00
2023-05-06T09:09:58.591Z,1.00
2023-05-06T09:11:00.370Z,1.00
2023-05-06T09:12:02.263Z,1.00
2023-05-06T09:13:04.082Z,1.00
2023-05-06T09:14:17.408Z,1.00
2023-05-06T09:15:25.295Z,1.00
2023-05-06T09:16:29.789Z,1.00
2023-05-06T09:17:33.779Z,1.00
2023-05-06T09:18:37.471Z,1.00
2023-05-06T09:19:39.723Z,1.00
2023-05-06T09:20:44.537Z,1.00
2023-05-06T09:21:49.443Z,1.00
2023-05-06T09:22:51.728Z,1.00
2023-05-06T09:23:53.565Z,1.00
2023-05-06T09:24:57.268Z,1.00
2023-05-06T09:25:59.246Z,1.00
2023-05-06T09:27:02.148Z,1.00
2023-05-06T09:28:14.671Z,1.00
2023-05-06T09:29:16.886Z,1.00
2023-05-06T09:30:18.902Z,1.00
2023-05-06T09:31:20.925Z,1.00
2023-05-06T09:32:23.125Z,1.00
2023-05-06T09:33:27.033Z,1.00
2023-05-06T09:34:28.775Z,1.00
2023-05-06T09:35:40.293Z,1.00
2023-05-06T09:36:42.222Z,1.00
2023-05-06T09:37:44.792Z,1.00
2023-05-06T09:38:46.876Z,1.00
2023-05-06T09:39:49.445Z,1.00
2023-05-06T09:40:51.644Z,1.00
2023-05-06T09:41:55.032Z,1.00
2023-05-06T09:42:56.982Z,1.00
2023-05-06T09:43:59.398Z,1.00
2023-05-06T09:45:02.363Z,1.00
2023-05-06T09:46:06.683Z,1.00
2023-05-06T09:47:08.653Z,1.00
2023-05-06T09:48:10.880Z,1.00
2023-05-06T09:49:15.341Z,1.00
2023-05-06T09:50:18.403Z,1.00
2023-05-06T09:51:21.373Z,1.00
2023-05-06T09:52:23.864Z,1.00
2023-05-06T09:53:27.675Z,1.00
2023-05-06T09:54:29.687Z,1.00
2023-05-06T09:55:31.929Z,1.00
2023-05-06T09:56:34.528Z,1.00
2023-05-06T09:57:37.819Z,1.00
2023-05-06T09:58:40.368Z,1.00
2023-05-06T09:59:43.482Z,1.00
2023-05-06T10:00:45.590Z,1.00
2023-05-06T10:01:48.008Z,1.00
2023-05-06T10:02:50.474Z,1.00
2023-05-06T10:03:54.499Z,1.00
2023-05-06T10:04:58.617Z,1.00
2023-05-06T10:06:02.547Z,1.00
2023-05-06T10:07:05.475Z,1.00
2023-05-06T10:08:09.221Z,1.00
2023-05-06T10:09:11.298Z,1.00
2023-05-06T10:10:13.713Z,1.00
2023-05-06T10:11:15.821Z,1.00
2023-05-06T10:12:18.416Z,1.00
2023-05-06T10:13:22.031Z,1.00
2023-05-06T10:14:25.464Z,1.00
2023-05-06T10:15:27.531Z,1.00
2023-05-06T10:16:33.633Z,1.00
2023-05-06T10:17:39.882Z,1.00
2023-05-06T10:18:42.636Z,1.00
2023-05-06T10:19:46.575Z,1.00
2023-05-06T10:20:49.614Z,1.00
2023-05-06T10:22:10.676Z,1.00
2023-05-06T10:23:26.452Z,1.00
2023-05-06T10:24:36.993Z,1.00
2023-05-06T10:25:43.831Z,1.00
2023-05-06T10:26:46.871Z,1.00
2023-05-06T10:27:49.292Z,1.00
2023-05-06T10:28:53.725Z,1.00
2023-05-06T10:29:59.434Z,1.00
2023-05-06T10:31:04.857Z,1.00
2023-05-06T10:32:09.327Z,1.00
2023-05-06T10:33:12.621Z,1.00
2023-05-06T10:34:19.465Z,1.00
2023-05-06T10:35:59.129Z,1.00
2023-05-06T10:37:01.278Z,1.00
2023-05-06T10:38:05.034Z,1.00
2023-05-06T10:39:10.260Z,1.00
2023-05-06T10:40:12.511Z,1.00
2023-05-06T10:41:14.729Z,1.00
2023-05-06T10:42:17.249Z,1.00
2023-05-06T10:43:26.668Z,1.00
2023-05-06T10:44:56.522Z,1.00
2023-05-06T10:46:06.776Z,1.00
2023-05-06T10:47:09.796Z,1.00
2023-05-06T10:48:12.673Z,1.00
2023-05-06T10:49:14.579Z,1.00
2023-05-06T10:50:23.079Z,1.00
2023-05-06T10:51:27.435Z,1.00
2023-05-06T10:52:44.745Z,1.00
2023-05-06T10:53:56.877Z,1.00
2023-05-06T10:54:58.535Z,1.00
2023-05-06T10:56:09.768Z,1.00
2023-05-06T10:57:11.896Z,1.00
2023-05-06T10:58:15.128Z,1.00
2023-05-06T10:59:26.997Z,1.00
2023-05-06T11:00:34.093Z,1.00
2023-05-06T11:01:40.802Z,1.00
2023-05-06T11:02:43.489Z,1.00
2023-05-06T11:03:46.602Z,1.00
2023-05-06T11:04:59.504Z,1.00
2023-05-06T11:06:01.505Z,1.00
2023-05-06T11:07:11.212Z,1.00
2023-05-06T11:08:15.412Z,1.00
2023-05-06T11:09:18.043Z,1.00
2023-05-06T11:10:33.418Z,1.00
2023-05-06T11:12:04.542Z,1.00
2023-05-06T11:13:28.517Z,1.00
2023-05-06T11:14:30.645Z,1.00
2023-05-06T11:15:44.094Z,1.00
2023-05-06T11:16:53.398Z,1.00
2023-05-06T11:17:56.638Z,1.00
2023-05-06T11:18:58.822Z,1.00
2023-05-06T11:20:25.786Z,1.00
2023-05-06T11:21:33.395Z,1.00
2023-05-06T11:22:39.532Z,1.00
2023-05-06T11:23:49.240Z,1.00
2023-05-06T11:24:51.419Z,1.00
2023-05-06T11:25:55.374Z,1.00
2023-05-06T11:26:59.396Z,1.00
2023-05-06T11:28:01.512Z,1.00
2023-05-06T11:29:05.868Z,1.00
2023-05-06T11:30:14.844Z,1.00
2023-05-06T11:31:17.598Z,1.00
2023-05-06T11:32:25.031Z,1.00
2023-05-06T11:33:31.848Z,1.00
2023-05-06T11:34:35.397Z,1.00
2023-05-06T11:35:37.966Z,1.00
2023-05-06T11:36:55.354Z,1.00
2023-05-06T11:37:57.377Z,1.00
2023-05-06T11:39:08.269Z,1.00
2023-05-06T11:40:16.122Z,1.00
2023-05-06T11:41:18.738Z,1.00
2023-05-06T11:42:29.000Z,1.00
2023-05-06T11:43:30.682Z,1.00
2023-05-06T11:44:35.862Z,1.00
2023-05-06T11:45:46.310Z,1.00
2023-05-06T11:46:48.179Z,1.00
2023-05-06T11:47:56.309Z,1.00
2023-05-06T11:48:58.098Z,1.00
2023-05-06T11:50:06.435Z,1.00
2023-05-06T11:51:08.286Z,1.00
2023-05-06T11:52:12.083Z,1.00
2023-05-06T11:53:20.446Z,1.00
2023-05-06T11:54:23.018Z,1.00
2023-05-06T11:55:25.620Z,1.00
2023-05-06T11:56:28.854Z,1.00
2023-05-06T11:57:33.087Z,1.00
2023-05-06T11:58:35.064Z,1.00
2023-05-06T11:59:40.970Z,1.00
2023-05-06T12:01:03.101Z,1.00
2023-05-06T12:02:09.084Z,1.00
2023-05-06T12:03:14.679Z,1.00
2023-05-06T12:04:16.626Z,1.00
2023-05-06T12:05:23.404Z,1.00
2023-05-06T12:06:35.051Z,1.00
2023-05-06T12:07:37.076Z,1.00
2023-05-06T12:08:39.732Z,1.00
2023-05-06T12:09:47.641Z,1.00
2023-05-06T12:10:51.587Z,1.00
2023-05-06T12:11:53.674Z,1.00
2023-05-06T12:12:55.638Z,1.00
2023-05-06T12:13:57.551Z,1.00
2023-05-06T12:14:59.577Z,1.00
2023-05-06T12:16:01.653Z,1.00
2023-05-06T12:17:04.101Z,1.00
2023-05-06T12:18:07.330Z,1.00
2023-05-06T12:19:09.207Z,1.00
2023-05-06T12:20:12.244Z,1.00
2023-05-06T12:21:14.819Z,1.00
2023-05-06T12:22:21.383Z,1.00
2023-05-06T12:23:25.111Z,1.00
2023-05-06T12:24:31.389Z,1.00
2023-05-06T12:25:33.215Z,1.00
2023-05-06T12:27:01.503Z,1.00
2023-05-06T12:28:15.174Z,1.00
2023-05-06T12:29:17.537Z,1.00
2023-05-06T12:30:30.756Z,1.00
2023-05-06T12:31:32.647Z,1.00
2023-05-06T12:32:34.925Z,1.00
2023-05-06T12:33:49.040Z,1.00
2023-05-06T12:34:50.778Z,1.00
2023-05-06T12:35:54.756Z,1.00
2023-05-06T12:36:56.671Z,1.00
2023-05-06T12:38:14.793Z,1.00
2023-05-06T12:39:17.505Z,1.00
2023-05-06T12:40:19.300Z,1.00
2023-05-06T12:41:21.442Z,1.00
2023-05-06T12:42:23.561Z,1.00
2023-05-06T12:43:32.723Z,1.00
2023-05-06T12:44:39.532Z,1.00
2023-05-06T12:45:41.402Z,1.00
2023-05-06T12:46:53.230Z,1.00
2023-05-06T12:48:01.803Z,1.00
2023-05-06T12:49:04.241Z,1.00
2023-05-06T12:50:06.451Z,1.00
2023-05-06T12:51:19.141Z,1.00
2023-05-06T12:52:23.309Z,1.00
2023-05-06T12:53:34.129Z,1.00
2023-05-06T12:54:37.379Z,1.00
2023-05-06T12:55:43.383Z,1.00
2023-05-06T12:56:45.977Z,1.00
2023-05-06T12:57:49.175Z,1.00
2023-05-06T12:59:02.472Z,1.00
2023-05-06T13:00:06.118Z,1.00
2023-05-06T13:01:08.046Z,1.00
2023-05-06T13:02:10.078Z,1.00
2023-05-06T13:03:13.342Z,1.00
2023-05-06T13:04:15.129Z,1.00
2023-05-06T13:05:16.783Z,1.00
2023-05-06T13:06:22.193Z,1.00
2023-05-06T13:07:23.874Z,1.00
2023-05-06T13:08:26.104Z,1.00
2023-05-06T13:09:28.265Z,1.00
2023-05-06T13:10:30.121Z,1.00
2023-05-06T13:11:31.790Z,1.00
2023-05-06T13:12:33.821Z,1.00
2023-05-06T13:13:35.633Z,1.00
2023-05-06T13:14:40.116Z,1.00
2023-05-06T13:15:44.208Z,1.00
2023-05-06T13:16:46.734Z,1.00
2023-05-06T13:17:51.856Z,1.00
2023-05-06T13:18:53.541Z,1.00
2023-05-06T13:20:02.215Z,1.00
2023-05-06T13:21:05.687Z,1.00
2023-05-06T13:22:07.554Z,1.00
2023-05-06T13:23:09.226Z,1.00
2023-05-06T13:24:10.909Z,1.00
2023-05-06T13:25:13.468Z,1.00
2023-05-06T13:26:15.997Z,1.00
2023-05-06T13:27:17.766Z,1.00
2023-05-06T13:28:19.775Z,1.00
2023-05-06T13:29:23.183Z,1.00
2023-05-06T13:30:24.997Z,1.00
2023-05-06T13:31:31.820Z,1.00
2023-05-06T13:32:33.987Z,1.00
2023-05-06T13:33:36.209Z,1.00
2023-05-06T13:34:38.242Z,1.00
2023-05-06T13:35:39.965Z,1.00
2023-05-06T13:36:43.454Z,1.00
2023-05-06T13:37:45.351Z,1.00
2023-05-06T13:38:47.170Z,1.00
2023-05-06T13:39:50.169Z,1.00
2023-05-06T13:40:52.857Z,1.00
2023-05-06T13:41:54.632Z,1.00
2023-05-06T13:42:56.382Z,1.00
2023-05-06T13:43:58.028Z,1.00
2023-05-06T13:45:00.830Z,1.00
2023-05-06T13:46:02.739Z,1.00
2023-05-06T13:47:04.785Z,1.00
2023-05-06T13:48:06.531Z,1.00
2023-05-06T13:49:08.247Z,1.00
2023-05-06T13:50:10.682Z,1.00
2023-05-06T13:51:12.534Z,1.00
2023-05-06T13:52:14.334Z,1.00
2023-05-06T13:53:17.058Z,1.00
2023-05-06T13:54:18.808Z,1.00
2023-05-06T13:55:20.760Z,1.00
2023-05-06T13:56:25.225Z,1.00
2023-05-06T13:57:27.000Z,1.00
2023-05-06T13:58:28.771Z,1.00
2023-05-06T13:59:31.153Z,1.00
2023-05-06T14:00:36.106Z,1.00
2023-05-06T14:01:38.248Z,1.00
2023-05-06T14:02:39.989Z,1.00
2023-05-06T14:03:41.741Z,1.00